sensor_id;sensor_type;location;lat;lon;timestamp;P1;durP1;ratioP1;P2;durP2;ratioP2
60426;SDS011;46274;47.168;27.604;2023-03-25T00:00:41;14.17;;;7.20;;
60426;SDS011;46274;47.168;27.604;2023-03-25T00:06:47;17.40;;;7.83;;
60426;SDS011;46274;47.168;27.604;2023-03-25T00:12:49;14.30;;;6.97;;
60426;SDS011;46274;47.168;27.604;2023-03-25T00:18:55;14.43;;;7.03;;
60426;SDS011;46274;47.168;27.604;2023-03-25T00:25:02;15.27;;;7.73;;
60426;SDS011;46274;47.168;27.604;2023-03-25T00:31:09;15.70;;;8.93;;
60426;SDS011;46274;47.168;27.604;2023-03-25T00:37:14;20.80;;;9.27;;
60426;SDS011;46274;47.168;27.604;2023-03-25T00:43:22;17.03;;;8.93;;
60426;SDS011;46274;47.168;27.604;2023-03-25T00:49:25;16.93;;;8.77;;
60426;SDS011;46274;47.168;27.604;2023-03-25T00:55:29;15.10;;;8.00;;
60426;SDS011;46274;47.168;27.604;2023-03-25T01:01:32;17.23;;;9.37;;
60426;SDS011;46274;47.168;27.604;2023-03-25T01:07:37;15.60;;;8.10;;
60426;SDS011;46274;47.168;27.604;2023-03-25T01:13:41;12.90;;;7.57;;
60426;SDS011;46274;47.168;27.604;2023-03-25T01:19:43;18.10;;;8.27;;
60426;SDS011;46274;47.168;27.604;2023-03-25T01:25:46;18.63;;;9.07;;
60426;SDS011;46274;47.168;27.604;2023-03-25T01:31:49;18.27;;;9.33;;
60426;SDS011;46274;47.168;27.604;2023-03-25T01:37:52;14.43;;;7.93;;
60426;SDS011;46274;47.168;27.604;2023-03-25T01:50:16;19.20;;;9.73;;
60426;SDS011;46274;47.168;27.604;2023-03-25T01:56:21;18.20;;;9.33;;
60426;SDS011;46274;47.168;27.604;2023-03-25T02:02:28;15.40;;;8.10;;
60426;SDS011;46274;47.168;27.604;2023-03-25T02:08:38;15.40;;;7.60;;
60426;SDS011;46274;47.168;27.604;2023-03-25T02:14:42;16.10;;;7.70;;
60426;SDS011;46274;47.168;27.604;2023-03-25T02:21:08;21.50;;;7.93;;
60426;SDS011;46274;47.168;27.604;2023-03-25T02:46:02;20.07;;;9.50;;
60426;SDS011;46274;47.168;27.604;2023-03-25T02:52:11;19.40;;;10.73;;
60426;SDS011;46274;47.168;27.604;2023-03-25T02:58:18;24.47;;;10.77;;
60426;SDS011;46274;47.168;27.604;2023-03-25T03:04:22;20.73;;;10.73;;
60426;SDS011;46274;47.168;27.604;2023-03-25T03:10:25;21.50;;;10.00;;
60426;SDS011;46274;47.168;27.604;2023-03-25T03:16:39;19.77;;;10.73;;
60426;SDS011;46274;47.168;27.604;2023-03-25T03:29:13;23.33;;;10.57;;
60426;SDS011;46274;47.168;27.604;2023-03-25T03:41:26;16.33;;;6.93;;
60426;SDS011;46274;47.168;27.604;2023-03-25T03:47:31;15.00;;;7.73;;
60426;SDS011;46274;47.168;27.604;2023-03-25T03:53:41;16.40;;;8.90;;
60426;SDS011;46274;47.168;27.604;2023-03-25T04:00:11;17.60;;;9.27;;
60426;SDS011;46274;47.168;27.604;2023-03-25T04:06:18;25.83;;;10.90;;
60426;SDS011;46274;47.168;27.604;2023-03-25T04:12:30;16.37;;;9.57;;
60426;SDS011;46274;47.168;27.604;2023-03-25T04:18:35;24.27;;;10.00;;
60426;SDS011;46274;47.168;27.604;2023-03-25T04:24:38;34.17;;;12.20;;
60426;SDS011;46274;47.168;27.604;2023-03-25T04:30:43;20.47;;;10.30;;
60426;SDS011;46274;47.168;27.604;2023-03-25T04:36:49;26.30;;;14.63;;
60426;SDS011;46274;47.168;27.604;2023-03-25T04:42:51;24.47;;;13.53;;
60426;SDS011;46274;47.168;27.604;2023-03-25T04:48:54;25.17;;;11.43;;
60426;SDS011;46274;47.168;27.604;2023-03-25T04:54:57;14.50;;;7.93;;
60426;SDS011;46274;47.168;27.604;2023-03-25T05:01:00;23.23;;;11.67;;
60426;SDS011;46274;47.168;27.604;2023-03-25T05:07:07;14.73;;;8.13;;
60426;SDS011;46274;47.168;27.604;2023-03-25T05:13:12;16.83;;;8.23;;
60426;SDS011;46274;47.168;27.604;2023-03-25T05:19:14;20.00;;;9.93;;
60426;SDS011;46274;47.168;27.604;2023-03-25T05:25:19;28.70;;;13.37;;
60426;SDS011;46274;47.168;27.604;2023-03-25T05:31:22;21.87;;;10.63;;
60426;SDS011;46274;47.168;27.604;2023-03-25T05:37:26;19.77;;;10.57;;
60426;SDS011;46274;47.168;27.604;2023-03-25T05:43:29;26.50;;;11.47;;
60426;SDS011;46274;47.168;27.604;2023-03-25T05:49:37;20.47;;;11.20;;
60426;SDS011;46274;47.168;27.604;2023-03-25T05:55:43;23.30;;;12.60;;
60426;SDS011;46274;47.168;27.604;2023-03-25T06:01:48;25.50;;;14.47;;
60426;SDS011;46274;47.168;27.604;2023-03-25T06:07:50;26.73;;;12.40;;
60426;SDS011;46274;47.168;27.604;2023-03-25T06:14:01;40.00;;;20.73;;
60426;SDS011;46274;47.168;27.604;2023-03-25T06:20:07;27.07;;;13.37;;
60426;SDS011;46274;47.168;27.604;2023-03-25T06:26:15;22.50;;;10.27;;
60426;SDS011;46274;47.168;27.604;2023-03-25T06:32:18;26.63;;;12.63;;
60426;SDS011;46274;47.168;27.604;2023-03-25T06:38:21;19.10;;;10.47;;
60426;SDS011;46274;47.168;27.604;2023-03-25T06:44:23;21.23;;;9.90;;
60426;SDS011;46274;47.168;27.604;2023-03-25T06:50:26;26.90;;;12.87;;
60426;SDS011;46274;47.168;27.604;2023-03-25T06:56:30;24.07;;;12.23;;
60426;SDS011;46274;47.168;27.604;2023-03-25T07:02:32;23.50;;;13.13;;
60426;SDS011;46274;47.168;27.604;2023-03-25T07:08:34;22.97;;;13.00;;
60426;SDS011;46274;47.168;27.604;2023-03-25T07:14:36;28.47;;;13.27;;
60426;SDS011;46274;47.168;27.604;2023-03-25T07:20:39;21.57;;;11.77;;
60426;SDS011;46274;47.168;27.604;2023-03-25T07:26:46;20.27;;;10.83;;
60426;SDS011;46274;47.168;27.604;2023-03-25T07:32:49;23.40;;;11.87;;
60426;SDS011;46274;47.168;27.604;2023-03-25T07:38:53;21.60;;;12.13;;
60426;SDS011;46274;47.168;27.604;2023-03-25T07:44:57;27.37;;;12.83;;
60426;SDS011;46274;47.168;27.604;2023-03-25T07:50:59;23.10;;;12.77;;
60426;SDS011;46274;47.168;27.604;2023-03-25T07:57:01;22.37;;;11.53;;
60426;SDS011;46274;47.168;27.604;2023-03-25T08:03:03;28.43;;;13.30;;
60426;SDS011;46274;47.168;27.604;2023-03-25T08:09:07;35.17;;;13.87;;
60426;SDS011;46274;47.168;27.604;2023-03-25T08:15:12;29.27;;;12.70;;
60426;SDS011;46274;47.168;27.604;2023-03-25T08:21:15;21.20;;;11.53;;
60426;SDS011;46274;47.168;27.604;2023-03-25T08:27:17;21.67;;;11.90;;
60426;SDS011;46274;47.168;27.604;2023-03-25T08:33:23;26.20;;;11.07;;
60426;SDS011;46274;47.168;27.604;2023-03-25T08:39:41;23.53;;;12.10;;
60426;SDS011;46274;47.168;27.604;2023-03-25T08:45:46;24.77;;;10.43;;
60426;SDS011;46274;47.168;27.604;2023-03-25T08:51:52;20.23;;;10.03;;
60426;SDS011;46274;47.168;27.604;2023-03-25T08:57:55;15.57;;;9.10;;
60426;SDS011;46274;47.168;27.604;2023-03-25T09:03:58;19.90;;;9.10;;
60426;SDS011;46274;47.168;27.604;2023-03-25T09:10:05;23.30;;;8.43;;
60426;SDS011;46274;47.168;27.604;2023-03-25T09:16:14;10.37;;;4.40;;
60426;SDS011;46274;47.168;27.604;2023-03-25T09:22:22;8.87;;;5.20;;
60426;SDS011;46274;47.168;27.604;2023-03-25T09:35:03;11.97;;;6.13;;
60426;SDS011;46274;47.168;27.604;2023-03-25T09:41:18;12.88;;;5.40;;
60426;SDS011;46274;47.168;27.604;2023-03-25T09:54:28;9.73;;;5.07;;
60426;SDS011;46274;47.168;27.604;2023-03-25T10:13:31;11.52;;;5.03;;
60426;SDS011;46274;47.168;27.604;2023-03-25T10:20:11;9.80;;;5.88;;
60426;SDS011;46274;47.168;27.604;2023-03-25T10:32:55;16.40;;;5.95;;
60426;SDS011;46274;47.168;27.604;2023-03-25T10:52:01;12.18;;;6.00;;
60426;SDS011;46274;47.168;27.604;2023-03-25T10:58:06;16.40;;;7.10;;
60426;SDS011;46274;47.168;27.604;2023-03-25T11:04:18;12.00;;;6.63;;
60426;SDS011;46274;47.168;27.604;2023-03-25T11:10:25;15.10;;;5.90;;
60426;SDS011;46274;47.168;27.604;2023-03-25T11:16:42;12.40;;;5.97;;
60426;SDS011;46274;47.168;27.604;2023-03-25T11:22:49;10.23;;;6.05;;
60426;SDS011;46274;47.168;27.604;2023-03-25T11:29:00;11.25;;;5.28;;
60426;SDS011;46274;47.168;27.604;2023-03-25T11:35:21;8.48;;;4.40;;
60426;SDS011;46274;47.168;27.604;2023-03-25T11:48:24;6.85;;;3.67;;
60426;SDS011;46274;47.168;27.604;2023-03-25T11:54:34;9.18;;;3.40;;
60426;SDS011;46274;47.168;27.604;2023-03-25T12:00:39;6.85;;;3.42;;
60426;SDS011;46274;47.168;27.604;2023-03-25T12:06:57;30.20;;;3.95;;
60426;SDS011;46274;47.168;27.604;2023-03-25T12:20:12;15.13;;;3.33;;
60426;SDS011;46274;47.168;27.604;2023-03-25T12:47:20;4.82;;;2.60;;
60426;SDS011;46274;47.168;27.604;2023-03-25T13:13:10;6.43;;;3.25;;
60426;SDS011;46274;47.168;27.604;2023-03-25T13:32:30;19.77;;;8.80;;
60426;SDS011;46274;47.168;27.604;2023-03-25T13:38:39;29.02;;;11.80;;
60426;SDS011;46274;47.168;27.604;2023-03-25T13:44:48;10.43;;;4.72;;
60426;SDS011;46274;47.168;27.604;2023-03-25T13:50:54;6.47;;;4.03;;
60426;SDS011;46274;47.168;27.604;2023-03-25T14:16:21;8.50;;;3.50;;
60426;SDS011;46274;47.168;27.604;2023-03-25T14:22:38;6.17;;;3.43;;
60426;SDS011;46274;47.168;27.604;2023-03-25T14:28:44;7.40;;;4.05;;
60426;SDS011;46274;47.168;27.604;2023-03-25T14:34:48;7.27;;;4.20;;
60426;SDS011;46274;47.168;27.604;2023-03-25T14:40:54;10.03;;;5.20;;
60426;SDS011;46274;47.168;27.604;2023-03-25T14:47:25;11.60;;;4.27;;
60426;SDS011;46274;47.168;27.604;2023-03-25T14:53:27;7.27;;;3.70;;
60426;SDS011;46274;47.168;27.604;2023-03-25T14:59:35;9.10;;;5.23;;
60426;SDS011;46274;47.168;27.604;2023-03-25T15:05:40;10.00;;;5.53;;
60426;SDS011;46274;47.168;27.604;2023-03-25T15:12:04;8.67;;;4.53;;
60426;SDS011;46274;47.168;27.604;2023-03-25T15:19:00;7.57;;;4.30;;
60426;SDS011;46274;47.168;27.604;2023-03-25T15:24:49;14.47;;;6.87;;
60426;SDS011;46274;47.168;27.604;2023-03-25T15:44:01;13.83;;;7.73;;
60426;SDS011;46274;47.168;27.604;2023-03-25T15:56:49;10.20;;;3.93;;
60426;SDS011;46274;47.168;27.604;2023-03-25T16:03:00;6.07;;;3.50;;
60426;SDS011;46274;47.168;27.604;2023-03-25T16:09:19;7.27;;;3.23;;
60426;SDS011;46274;47.168;27.604;2023-03-25T16:15:29;7.67;;;2.93;;
60426;SDS011;46274;47.168;27.604;2023-03-25T16:21:36;5.67;;;2.70;;
60426;SDS011;46274;47.168;27.604;2023-03-25T16:27:42;4.53;;;2.70;;
60426;SDS011;46274;47.168;27.604;2023-03-25T16:33:50;4.33;;;2.60;;
60426;SDS011;46274;47.168;27.604;2023-03-25T16:39:53;2.53;;;1.87;;
60426;SDS011;46274;47.168;27.604;2023-03-25T16:46:00;4.60;;;2.30;;
60426;SDS011;46274;47.168;27.604;2023-03-25T16:52:11;4.10;;;2.27;;
60426;SDS011;46274;47.168;27.604;2023-03-25T16:58:47;2.93;;;2.10;;
60426;SDS011;46274;47.168;27.604;2023-03-25T17:11:25;6.33;;;2.73;;
60426;SDS011;46274;47.168;27.604;2023-03-25T17:17:40;27.53;;;11.43;;
60426;SDS011;46274;47.168;27.604;2023-03-25T17:23:53;29.20;;;13.30;;
60426;SDS011;46274;47.168;27.604;2023-03-25T17:29:58;21.83;;;11.53;;
60426;SDS011;46274;47.168;27.604;2023-03-25T17:36:24;13.60;;;8.00;;
60426;SDS011;46274;47.168;27.604;2023-03-25T17:42:33;11.37;;;5.60;;
60426;SDS011;46274;47.168;27.604;2023-03-25T17:48:39;9.20;;;5.00;;
60426;SDS011;46274;47.168;27.604;2023-03-25T17:54:41;8.13;;;4.90;;
60426;SDS011;46274;47.168;27.604;2023-03-25T18:00:46;9.37;;;5.20;;
60426;SDS011;46274;47.168;27.604;2023-03-25T18:06:50;5.60;;;3.43;;
60426;SDS011;46274;47.168;27.604;2023-03-25T18:12:55;6.90;;;3.63;;
60426;SDS011;46274;47.168;27.604;2023-03-25T18:18:57;6.33;;;3.13;;
60426;SDS011;46274;47.168;27.604;2023-03-25T18:25:01;5.03;;;2.90;;
60426;SDS011;46274;47.168;27.604;2023-03-25T18:31:05;4.67;;;2.63;;
60426;SDS011;46274;47.168;27.604;2023-03-25T18:37:16;3.20;;;2.30;;
60426;SDS011;46274;47.168;27.604;2023-03-25T18:43:21;4.70;;;2.30;;
60426;SDS011;46274;47.168;27.604;2023-03-25T18:49:26;5.53;;;2.40;;
60426;SDS011;46274;47.168;27.604;2023-03-25T18:55:29;3.17;;;2.13;;
60426;SDS011;46274;47.168;27.604;2023-03-25T19:01:46;6.67;;;2.93;;
60426;SDS011;46274;47.168;27.604;2023-03-25T19:07:50;6.27;;;2.60;;
60426;SDS011;46274;47.168;27.604;2023-03-25T19:13:56;4.60;;;2.20;;
60426;SDS011;46274;47.168;27.604;2023-03-25T19:19:58;3.63;;;1.90;;
60426;SDS011;46274;47.168;27.604;2023-03-25T19:26:01;6.57;;;2.63;;
60426;SDS011;46274;47.168;27.604;2023-03-25T19:32:06;3.43;;;1.93;;
60426;SDS011;46274;47.168;27.604;2023-03-25T19:38:14;4.37;;;1.83;;
60426;SDS011;46274;47.168;27.604;2023-03-25T19:44:22;4.87;;;1.80;;
60426;SDS011;46274;47.168;27.604;2023-03-25T19:50:29;5.53;;;1.60;;
60426;SDS011;46274;47.168;27.604;2023-03-25T19:56:35;2.87;;;1.87;;
60426;SDS011;46274;47.168;27.604;2023-03-25T20:02:59;4.03;;;2.63;;
60426;SDS011;46274;47.168;27.604;2023-03-25T20:09:02;3.87;;;1.83;;
60426;SDS011;46274;47.168;27.604;2023-03-25T20:15:06;5.47;;;2.00;;
60426;SDS011;46274;47.168;27.604;2023-03-25T20:21:10;4.57;;;2.47;;
60426;SDS011;46274;47.168;27.604;2023-03-25T20:27:13;4.23;;;2.07;;
60426;SDS011;46274;47.168;27.604;2023-03-25T20:33:15;3.63;;;1.93;;
60426;SDS011;46274;47.168;27.604;2023-03-25T20:39:18;4.23;;;2.00;;
60426;SDS011;46274;47.168;27.604;2023-03-25T20:45:21;2.97;;;1.60;;
60426;SDS011;46274;47.168;27.604;2023-03-25T20:51:30;2.27;;;1.60;;
60426;SDS011;46274;47.168;27.604;2023-03-25T20:57:32;3.10;;;1.90;;
60426;SDS011;46274;47.168;27.604;2023-03-25T21:03:36;2.20;;;1.50;;
60426;SDS011;46274;47.168;27.604;2023-03-25T21:09:39;2.00;;;1.30;;
60426;SDS011;46274;47.168;27.604;2023-03-25T21:15:42;3.27;;;1.40;;
60426;SDS011;46274;47.168;27.604;2023-03-25T21:21:46;4.23;;;2.20;;
60426;SDS011;46274;47.168;27.604;2023-03-25T21:27:49;4.23;;;2.43;;
60426;SDS011;46274;47.168;27.604;2023-03-25T21:33:53;4.77;;;2.70;;
60426;SDS011;46274;47.168;27.604;2023-03-25T21:39:58;4.77;;;2.60;;
60426;SDS011;46274;47.168;27.604;2023-03-25T21:46:02;8.73;;;2.60;;
60426;SDS011;46274;47.168;27.604;2023-03-25T21:52:06;4.57;;;2.50;;
60426;SDS011;46274;47.168;27.604;2023-03-25T21:58:13;4.90;;;2.03;;
60426;SDS011;46274;47.168;27.604;2023-03-25T22:04:15;4.63;;;2.80;;
60426;SDS011;46274;47.168;27.604;2023-03-25T22:10:20;6.37;;;3.30;;
60426;SDS011;46274;47.168;27.604;2023-03-25T22:16:22;10.83;;;3.97;;
60426;SDS011;46274;47.168;27.604;2023-03-25T22:22:28;4.90;;;2.70;;
60426;SDS011;46274;47.168;27.604;2023-03-25T22:28:30;6.13;;;2.80;;
60426;SDS011;46274;47.168;27.604;2023-03-25T22:34:33;7.07;;;3.67;;
60426;SDS011;46274;47.168;27.604;2023-03-25T22:40:35;5.60;;;3.10;;
60426;SDS011;46274;47.168;27.604;2023-03-25T22:46:37;5.00;;;2.60;;
60426;SDS011;46274;47.168;27.604;2023-03-25T22:52:44;4.93;;;2.90;;
60426;SDS011;46274;47.168;27.604;2023-03-25T22:58:53;6.33;;;2.57;;
60426;SDS011;46274;47.168;27.604;2023-03-25T23:04:57;8.87;;;3.37;;
60426;SDS011;46274;47.168;27.604;2023-03-25T23:11:05;4.43;;;2.60;;
60426;SDS011;46274;47.168;27.604;2023-03-25T23:17:12;5.07;;;2.40;;
60426;SDS011;46274;47.168;27.604;2023-03-25T23:23:18;9.03;;;3.97;;
60426;SDS011;46274;47.168;27.604;2023-03-25T23:29:23;9.90;;;4.60;;
60426;SDS011;46274;47.168;27.604;2023-03-25T23:35:28;5.10;;;2.90;;
60426;SDS011;46274;47.168;27.604;2023-03-25T23:41:30;3.87;;;2.23;;
60426;SDS011;46274;47.168;27.604;2023-03-25T23:47:33;8.23;;;3.87;;
60426;SDS011;46274;47.168;27.604;2023-03-25T23:53:38;5.33;;;3.00;;
60426;SDS011;46274;47.168;27.604;2023-03-25T23:59:42;4.60;;;2.50;;
